Thursday, November 27, 2014, 5:51 PM EST

KOKV, Winchester Regional

Location: Winchester, VA, United States Lat: 39.15
Local Time: 5:51 PM EST (22:51 GMT) Lon: -78.15
Time Zone: US/Eastern Elev: 728 ft

Show me the last for .
Show Decoded

2014-11-27 17:35 METAR KOKV 272235Z AUTO 29011G15KT 10SM SCT055 BKN065 03/M03 A3010 RMK AO2 P0001
                 =
2014-11-27 17:15 METAR KOKV 272215Z AUTO 28010KT 10SM OVC055 03/M03 A3010 RMK AO2 P0001 =
2014-11-27 16:55 METAR KOKV 272155Z AUTO 28006KT 10SM OVC065 03/M03 A3009 RMK AO2 P0002 =
2014-11-27 16:35 METAR KOKV 272135Z AUTO 28006KT 10SM BKN065 03/M03 A3008 RMK AO2 P0002 =
2014-11-27 16:15 METAR KOKV 272115Z AUTO 28007KT 10SM OVC065 03/M03 A3008 RMK AO2 P0001 =
2014-11-27 15:55 METAR KOKV 272055Z AUTO 28006KT 10SM OVC065 03/M03 A3007 RMK AO2 P0004 =
2014-11-27 15:35 METAR KOKV 272035Z AUTO 27010KT 10SM SCT034 SCT043 OVC050 03/M03 A3007 RMK AO2
                 P0003 =
2014-11-27 15:15 METAR KOKV 272015Z AUTO 31012G16KT 7SM -SN SCT026 BKN035 OVC042 03/M02 A3006 RMK
                 AO2 P0001 =
2014-11-27 14:55 METAR KOKV 271955Z AUTO 29007KT 10SM DZ BKN026 BKN032 OVC065 04/M02 A3006 RMK
                 AO2 P0005 =
2014-11-27 14:35 METAR KOKV 271935Z AUTO 27006KT 10SM SCT043 SCT050 OVC065 04/M03 A3005 RMK AO2
                 P0003 =
2014-11-27 14:15 METAR KOKV 271915Z AUTO 28007KT 10SM BKN048 OVC055 04/M02 A3004 RMK AO2 P0001 =
2014-11-27 13:55 METAR KOKV 271855Z AUTO 29009KT 10SM SCT034 SCT039 OVC048 05/M03 A3004 RMK AO2
                 P0005 =
2014-11-27 13:35 METAR KOKV 271835Z AUTO 28006KT 10SM SCT034 SCT045 OVC050 05/M03 A3004 RMK AO2
                 P0003 =
2014-11-27 13:15 METAR KOKV 271815Z AUTO 27004KT 10SM SCT047 OVC055 04/M02 A3004 RMK AO2 P0002 =
2014-11-27 12:55 METAR KOKV 271755Z AUTO 29006KT 10SM OVC055 05/M03 A3004 RMK AO2 P0006 =
2014-11-27 12:35 METAR KOKV 271735Z AUTO 29005KT 10SM OVC055 04/M03 A3004 RMK AO2 P0004 =
2014-11-27 12:15 METAR KOKV 271715Z AUTO 31003KT 10SM OVC055 04/M02 A3004 RMK AO2 P0002 =
2014-11-27 11:55 METAR KOKV 271655Z AUTO 31007KT 10SM SCT031 OVC055 05/M03 A3004 RMK AO2 P0008 =
2014-11-27 11:35 METAR KOKV 271635Z AUTO 32006KT 10SM BKN055 04/M02 A3004 RMK AO2 P0006 =
2014-11-27 11:15 METAR KOKV 271615Z AUTO 32007KT 10SM BKN055 04/M02 A3005 RMK AO2 P0003 =
2014-11-27 10:55 METAR KOKV 271555Z AUTO 32010G15KT 10SM OVC055 05/00 A3004 RMK AO2 P0005 =
2014-11-27 10:35 METAR KOKV 271535Z AUTO 32006KT 10SM OVC055 03/01 A3005 RMK AO2 P0002 =
2014-11-27 10:15 METAR KOKV 271515Z AUTO 29003KT 7SM OVC055 02/00 A3005 RMK AO2 P0001 =
2014-11-27 09:55 METAR KOKV 271455Z AUTO 00000KT 5SM BR OVC055 02/00 A3005 RMK AO2 =
2014-11-27 09:35 METAR KOKV 271435Z AUTO 22003KT 2 1/2SM BR OVC055 01/00 A3004 RMK AO2 =
2014-11-27 09:15 METAR KOKV 271415Z AUTO 00000KT 2 1/2SM BR OVC055 01/00 A3004 RMK AO2 =
2014-11-27 08:55 METAR KOKV 271355Z AUTO 00000KT 2SM BR SCT002 OVC055 01/00 A3004 RMK AO2 =
2014-11-27 08:35 METAR KOKV 271335Z AUTO 00000KT 2SM BR SCT002 OVC055 00/M01 A3003 RMK AO2 =
2014-11-27 08:15 METAR KOKV 271315Z AUTO 00000KT 1/2SM FG OVC055 00/M02 A3003 RMK AO2 =
2014-11-27 07:55 METAR KOKV 271255Z AUTO 00000KT M1/4SM FZFG OVC002 M01/M02 A3003 RMK AO2 =
2014-11-27 07:15 METAR KOKV 271215Z AUTO 00000KT M1/4SM FG OVC002 00/M01 A3002 RMK AO2 =
2014-11-27 06:55 METAR KOKV 271155Z AUTO 00000KT 1/4SM FG OVC002 00/M01 A3001 RMK AO2 =
2014-11-27 06:35 METAR KOKV 271135Z AUTO 00000KT 1/2SM FG BKN002 OVC026 00/M01 A3000 RMK AO2 =
2014-11-27 06:15 METAR KOKV 271115Z AUTO 00000KT 1/2SM FG SCT002 OVC026 00/M01 A3001 RMK AO2 =
2014-11-27 05:55 METAR KOKV 271055Z AUTO 00000KT 1/2SM FG BKN002 OVC026 00/M01 A3000 RMK AO2 =
2014-11-27 05:35 METAR KOKV 271035Z AUTO 00000KT 1/4SM FG OVC002 00/M01 A3000 RMK AO2 =
2014-11-27 05:15 METAR KOKV 271015Z AUTO 00000KT 1/2SM FG BKN002 OVC025 00/M01 A3000 RMK AO2 =
2014-11-27 04:55 METAR KOKV 270955Z AUTO 30003KT 1/4SM FG OVC002 00/M01 A3001 RMK AO2 =
2014-11-27 04:35 METAR KOKV 270935Z AUTO 00000KT 1/4SM FG OVC002 00/M01 A3000 RMK AO2 =
2014-11-27 04:15 METAR KOKV 270915Z AUTO 00000KT 1/4SM FG OVC002 00/M01 A3000 RMK AO2 =
2014-11-27 03:55 METAR KOKV 270855Z AUTO 00000KT 1/4SM FG OVC002 00/M01 A3000 RMK AO2 =
2014-11-27 03:15 METAR KOKV 270815Z AUTO 00000KT 1/2SM FG SCT002 BKN034 BKN050 00/M01 A3000 RMK
                 AO2 =
2014-11-27 02:55 METAR KOKV 270755Z AUTO 00000KT 1SM BR BKN002 BKN034 OVC040 01/00 A3000 RMK AO2
                 =
2014-11-27 02:35 METAR KOKV 270735Z AUTO 00000KT 2 1/2SM BR SCT002 BKN041 OVC046 01/00 A3000 RMK
                 AO2 =
2014-11-27 02:15 METAR KOKV 270715Z AUTO 00000KT 2 1/2SM BR BKN002 BKN044 OVC075 01/00 A2999 RMK
                 AO2 =
2014-11-27 01:55 METAR KOKV 270655Z AUTO 00000KT 2 1/2SM BR BKN027 BKN043 OVC060 01/00 A3000 RMK
                 AO2 =
2014-11-27 01:35 METAR KOKV 270635Z AUTO 13003KT 3SM BR BKN029 BKN045 OVC070 01/00 A3000 RMK AO2
                 =
2014-11-27 01:15 METAR KOKV 270615Z AUTO 00000KT 3SM BR BKN029 OVC065 01/00 A2999 RMK AO2 =
2014-11-27 00:55 METAR KOKV 270555Z AUTO 21004KT 3SM BR SCT025 BKN032 OVC090 01/00 A3000 RMK AO2
                 =
2014-11-27 00:35 METAR KOKV 270535Z AUTO 00000KT 2 1/2SM BR OVC025 01/00 A2999 RMK AO2 =
2014-11-27 00:15 METAR KOKV 270515Z AUTO 00000KT 2SM BR OVC023 01/00 A3000 RMK AO2 =
2014-11-26 23:55 METAR KOKV 270455Z AUTO 00000KT 1 1/2SM BR SCT002 OVC023 01/00 A3000 RMK AO2 =
2014-11-26 23:35 METAR KOKV 270435Z AUTO 00000KT 2 1/2SM BR SCT002 BKN025 OVC065 00/M01 A2999 RMK
                 AO2 =
2014-11-26 23:15 METAR KOKV 270415Z AUTO 00000KT 2 1/2SM BR BKN065 OVC100 01/00 A3000 RMK AO2 =
2014-11-26 22:35 METAR KOKV 270335Z AUTO 00000KT 3SM BR BKN055 OVC080 01/00 A2999 RMK AO2 =
2014-11-26 22:15 METAR KOKV 270315Z AUTO 00000KT 2 1/2SM BR OVC055 01/00 A2999 RMK AO2 =
2014-11-26 21:55 METAR KOKV 270255Z AUTO 00000KT 1 1/2SM BR SCT025 OVC055 01/M01 A3000 RMK AO2
                 P0001 =
2014-11-26 21:35 METAR KOKV 270235Z AUTO 00000KT 5SM BR SCT055 OVC110 00/M01 A2999 RMK AO2 P0001
                 =
2014-11-26 21:15 METAR KOKV 270215Z AUTO 00000KT 10SM SCT070 BKN090 OVC110 01/00 A2998 RMK AO2
                 P0001 =
2014-11-26 20:55 METAR KOKV 270155Z AUTO 27003KT 10SM BKN090 OVC110 02/00 A2998 RMK AO2 P0002 =
2014-11-26 20:35 METAR KOKV 270135Z AUTO 29007KT 10SM SCT021 SCT045 OVC090 02/00 A2998 RMK AO2
                 P0001 =
2014-11-26 20:15 METAR KOKV 270115Z AUTO 27003KT 10SM SCT012 BKN021 OVC090 02/00 A2998 RMK AO2 =
2014-11-26 19:55 METAR KOKV 270055Z AUTO 31008KT 10SM BKN012 BKN045 OVC110 02/00 A2997 RMK AO2
                 P0001 =
2014-11-26 19:35 METAR KOKV 270035Z AUTO 28007KT 10SM BKN110 02/00 A2997 RMK AO2 P0001 =
2014-11-26 19:15 METAR KOKV 270015Z AUTO 28004KT 10SM OVC100 01/00 A2997 RMK AO2 =
2014-11-26 18:55 METAR KOKV 262355Z AUTO 00000KT 5SM BR OVC100 01/00 A2997 RMK AO2 P0001 =
2014-11-26 18:35 METAR KOKV 262335Z AUTO 00000KT 7SM OVC100 01/00 A2996 RMK AO2 P0001 =
2014-11-26 18:15 METAR KOKV 262315Z AUTO 00000KT 5SM BR SCT055 SCT070 OVC090 01/00 A2997 RMK AO2
                 P0001 =
2014-11-26 17:55 METAR KOKV 262255Z AUTO 00000KT 10SM SCT018 BKN055 OVC090 01/00 A2998 RMK AO2
                 P0002 =

Support USWX by starting your Amazon purchase here.